Terminal Aerodrome Forecast
Issued by NWS

Home | Current Version | Previous Version | Text Only | Print | Product List | Glossary On
Versions: 1 2 3 4 5 6 7 8 9 10 11 12 13 14 15 16 17 18 19 20 21 22 23
000
FTUS42 KCAE 291700
TAFOGB
TAF
KOGB 291728Z 2918/3018 14005KT P6SM FEW050
     FM300900 00000KT 4SM BR SKC
      TEMPO 3009/3012 2SM BR
     FM301200 VRB04KT P6SM SCT050=

USA.gov is the U.S. government's official web portal to all federal, state and local government web resources and services.